sensor_id;sensor_type;location;lat;lon;timestamp;P1;durP1;ratioP1;P2;durP2;ratioP2
48871;SDS011;36154;51.674;7.824;2022-09-09T00:01:41;1.70;;;0.50;;
48871;SDS011;36154;51.674;7.824;2022-09-09T00:06:22;2.35;;;0.80;;
48871;SDS011;36154;51.674;7.824;2022-09-09T00:14:13;1.60;;;0.57;;
48871;SDS011;36154;51.674;7.824;2022-09-09T00:17:01;0.93;;;0.45;;
48871;SDS011;36154;51.674;7.824;2022-09-09T00:19:33;1.33;;;0.55;;
48871;SDS011;36154;51.674;7.824;2022-09-09T00:22:18;0.80;;;0.50;;
48871;SDS011;36154;51.674;7.824;2022-09-09T00:24:46;1.42;;;0.40;;
48871;SDS011;36154;51.674;7.824;2022-09-09T00:27:25;3.20;;;0.70;;
48871;SDS011;36154;51.674;7.824;2022-09-09T00:30:21;0.95;;;0.43;;
48871;SDS011;36154;51.674;7.824;2022-09-09T00:32:49;1.13;;;0.60;;
48871;SDS011;36154;51.674;7.824;2022-09-09T00:35:23;1.15;;;0.35;;
48871;SDS011;36154;51.674;7.824;2022-09-09T00:37:54;1.30;;;0.40;;
48871;SDS011;36154;51.674;7.824;2022-09-09T00:40:25;1.63;;;0.40;;
48871;SDS011;36154;51.674;7.824;2022-09-09T00:43:06;0.30;;;0.30;;
48871;SDS011;36154;51.674;7.824;2022-09-09T00:48:06;1.02;;;0.50;;
48871;SDS011;36154;51.674;7.824;2022-09-09T00:53:26;1.80;;;0.45;;
48871;SDS011;36154;51.674;7.824;2022-09-09T00:58:42;1.67;;;0.55;;
48871;SDS011;36154;51.674;7.824;2022-09-09T01:01:15;2.72;;;0.50;;
48871;SDS011;36154;51.674;7.824;2022-09-09T01:03:54;0.45;;;0.32;;
48871;SDS011;36154;51.674;7.824;2022-09-09T01:11:51;0.85;;;0.30;;
48871;SDS011;36154;51.674;7.824;2022-09-09T01:14:24;1.10;;;0.43;;
48871;SDS011;36154;51.674;7.824;2022-09-09T01:17:14;3.90;;;0.93;;
48871;SDS011;36154;51.674;7.824;2022-09-09T01:27:29;1.13;;;0.50;;
48871;SDS011;36154;51.674;7.824;2022-09-09T01:29:56;1.08;;;0.60;;
48871;SDS011;36154;51.674;7.824;2022-09-09T01:35:37;2.28;;;0.63;;
48871;SDS011;36154;51.674;7.824;2022-09-09T01:38:09;1.15;;;0.52;;
48871;SDS011;36154;51.674;7.824;2022-09-09T01:40:34;0.93;;;0.52;;
48871;SDS011;36154;51.674;7.824;2022-09-09T01:43:00;0.70;;;0.50;;
48871;SDS011;36154;51.674;7.824;2022-09-09T01:45:26;3.65;;;0.63;;
48871;SDS011;36154;51.674;7.824;2022-09-09T01:47:54;0.68;;;0.25;;
48871;SDS011;36154;51.674;7.824;2022-09-09T01:50:20;1.60;;;0.50;;
48871;SDS011;36154;51.674;7.824;2022-09-09T01:52:47;0.85;;;0.35;;
48871;SDS011;36154;51.674;7.824;2022-09-09T01:55:18;1.13;;;0.50;;
48871;SDS011;36154;51.674;7.824;2022-09-09T02:00:20;1.80;;;0.45;;
48871;SDS011;36154;51.674;7.824;2022-09-09T02:06:25;1.77;;;0.40;;
48871;SDS011;36154;51.674;7.824;2022-09-09T02:08:26;1.13;;;0.47;;
48871;SDS011;36154;51.674;7.824;2022-09-09T02:11:15;3.20;;;0.60;;
48871;SDS011;36154;51.674;7.824;2022-09-09T02:13:45;1.35;;;0.40;;
48871;SDS011;36154;51.674;7.824;2022-09-09T02:18:51;1.13;;;0.40;;
48871;SDS011;36154;51.674;7.824;2022-09-09T02:21:31;1.73;;;0.50;;
48871;SDS011;36154;51.674;7.824;2022-09-09T02:24:00;2.50;;;0.50;;
48871;SDS011;36154;51.674;7.824;2022-09-09T02:26:29;1.30;;;0.50;;
48871;SDS011;36154;51.674;7.824;2022-09-09T02:28:58;2.03;;;0.80;;
48871;SDS011;36154;51.674;7.824;2022-09-09T02:31:26;0.68;;;0.40;;
48871;SDS011;36154;51.674;7.824;2022-09-09T02:33:56;0.90;;;0.50;;
48871;SDS011;36154;51.674;7.824;2022-09-09T02:36:25;2.67;;;0.73;;
48871;SDS011;36154;51.674;7.824;2022-09-09T02:38:54;2.63;;;0.68;;
48871;SDS011;36154;51.674;7.824;2022-09-09T02:41:22;3.38;;;0.50;;
48871;SDS011;36154;51.674;7.824;2022-09-09T02:43:51;1.40;;;0.70;;
48871;SDS011;36154;51.674;7.824;2022-09-09T02:49:11;3.20;;;0.73;;
48871;SDS011;36154;51.674;7.824;2022-09-09T02:54:32;1.95;;;0.60;;
48871;SDS011;36154;51.674;7.824;2022-09-09T02:57:02;0.88;;;0.40;;
48871;SDS011;36154;51.674;7.824;2022-09-09T02:59:31;2.60;;;0.70;;
48871;SDS011;36154;51.674;7.824;2022-09-09T03:01:58;1.05;;;0.60;;
48871;SDS011;36154;51.674;7.824;2022-09-09T03:04:23;1.60;;;0.80;;
48871;SDS011;36154;51.674;7.824;2022-09-09T03:06:49;1.75;;;0.63;;
48871;SDS011;36154;51.674;7.824;2022-09-09T03:09:15;4.10;;;0.80;;
48871;SDS011;36154;51.674;7.824;2022-09-09T03:11:41;1.00;;;0.73;;
48871;SDS011;36154;51.674;7.824;2022-09-09T03:14:06;2.30;;;0.82;;
48871;SDS011;36154;51.674;7.824;2022-09-09T03:16:31;3.05;;;0.55;;
48871;SDS011;36154;51.674;7.824;2022-09-09T03:18:58;2.72;;;0.90;;
48871;SDS011;36154;51.674;7.824;2022-09-09T03:21:23;2.72;;;0.60;;
48871;SDS011;36154;51.674;7.824;2022-09-09T03:23:49;2.03;;;0.80;;
48871;SDS011;36154;51.674;7.824;2022-09-09T03:26:15;3.03;;;0.90;;
48871;SDS011;36154;51.674;7.824;2022-09-09T03:28:40;1.73;;;0.70;;
48871;SDS011;36154;51.674;7.824;2022-09-09T03:31:07;0.65;;;0.60;;
48871;SDS011;36154;51.674;7.824;2022-09-09T03:33:35;4.72;;;0.60;;
48871;SDS011;36154;51.674;7.824;2022-09-09T03:36:04;1.88;;;0.70;;
48871;SDS011;36154;51.674;7.824;2022-09-09T03:38:30;1.33;;;0.52;;
48871;SDS011;36154;51.674;7.824;2022-09-09T03:40:57;3.38;;;0.45;;
48871;SDS011;36154;51.674;7.824;2022-09-09T03:43:23;2.17;;;0.50;;
48871;SDS011;36154;51.674;7.824;2022-09-09T03:45:50;2.28;;;0.82;;
48871;SDS011;36154;51.674;7.824;2022-09-09T03:48:16;2.65;;;0.98;;
48871;SDS011;36154;51.674;7.824;2022-09-09T03:50:46;2.78;;;0.70;;
48871;SDS011;36154;51.674;7.824;2022-09-09T03:53:11;2.50;;;0.68;;
48871;SDS011;36154;51.674;7.824;2022-09-09T03:55:37;1.85;;;0.77;;
48871;SDS011;36154;51.674;7.824;2022-09-09T03:58:02;1.33;;;0.70;;
48871;SDS011;36154;51.674;7.824;2022-09-09T04:00:28;3.70;;;0.68;;
48871;SDS011;36154;51.674;7.824;2022-09-09T04:02:54;3.20;;;0.75;;
48871;SDS011;36154;51.674;7.824;2022-09-09T04:05:19;2.92;;;0.80;;
48871;SDS011;36154;51.674;7.824;2022-09-09T04:07:44;1.50;;;0.75;;
48871;SDS011;36154;51.674;7.824;2022-09-09T04:10:10;2.50;;;0.65;;
48871;SDS011;36154;51.674;7.824;2022-09-09T04:12:35;2.13;;;0.70;;
48871;SDS011;36154;51.674;7.824;2022-09-09T04:15:01;2.10;;;0.77;;
48871;SDS011;36154;51.674;7.824;2022-09-09T04:17:27;2.58;;;0.65;;
48871;SDS011;36154;51.674;7.824;2022-09-09T04:19:52;1.48;;;0.65;;
48871;SDS011;36154;51.674;7.824;2022-09-09T04:22:17;0.80;;;0.65;;
48871;SDS011;36154;51.674;7.824;2022-09-09T04:24:43;3.08;;;0.60;;
48871;SDS011;36154;51.674;7.824;2022-09-09T04:27:08;2.08;;;0.77;;
48871;SDS011;36154;51.674;7.824;2022-09-09T04:29:34;2.33;;;0.60;;
48871;SDS011;36154;51.674;7.824;2022-09-09T04:31:59;2.22;;;0.52;;
48871;SDS011;36154;51.674;7.824;2022-09-09T04:34:24;1.52;;;0.40;;
48871;SDS011;36154;51.674;7.824;2022-09-09T04:36:50;2.30;;;0.40;;
48871;SDS011;36154;51.674;7.824;2022-09-09T04:39:16;4.03;;;0.50;;
48871;SDS011;36154;51.674;7.824;2022-09-09T04:41:42;1.13;;;0.40;;
48871;SDS011;36154;51.674;7.824;2022-09-09T04:44:07;1.42;;;0.50;;
48871;SDS011;36154;51.674;7.824;2022-09-09T04:46:32;0.90;;;0.55;;
48871;SDS011;36154;51.674;7.824;2022-09-09T04:48:59;2.05;;;0.50;;
48871;SDS011;36154;51.674;7.824;2022-09-09T04:51:24;2.15;;;0.30;;
48871;SDS011;36154;51.674;7.824;2022-09-09T04:53:50;4.15;;;0.70;;
48871;SDS011;36154;51.674;7.824;2022-09-09T04:56:16;1.77;;;1.02;;
48871;SDS011;36154;51.674;7.824;2022-09-09T04:58:42;6.68;;;1.17;;
48871;SDS011;36154;51.674;7.824;2022-09-09T05:01:09;5.68;;;1.00;;
48871;SDS011;36154;51.674;7.824;2022-09-09T05:03:36;7.03;;;1.30;;
48871;SDS011;36154;51.674;7.824;2022-09-09T05:06:09;10.27;;;1.85;;
48871;SDS011;36154;51.674;7.824;2022-09-09T05:08:37;4.72;;;1.67;;
48871;SDS011;36154;51.674;7.824;2022-09-09T05:11:03;8.70;;;1.70;;
48871;SDS011;36154;51.674;7.824;2022-09-09T05:13:42;9.15;;;1.55;;
48871;SDS011;36154;51.674;7.824;2022-09-09T05:16:07;8.18;;;1.95;;
48871;SDS011;36154;51.674;7.824;2022-09-09T05:18:36;9.75;;;1.70;;
48871;SDS011;36154;51.674;7.824;2022-09-09T05:21:02;13.20;;;2.40;;
48871;SDS011;36154;51.674;7.824;2022-09-09T05:23:28;13.85;;;2.20;;
48871;SDS011;36154;51.674;7.824;2022-09-09T05:25:54;10.52;;;2.28;;
48871;SDS011;36154;51.674;7.824;2022-09-09T05:28:21;9.57;;;2.10;;
48871;SDS011;36154;51.674;7.824;2022-09-09T05:30:46;9.90;;;2.20;;
48871;SDS011;36154;51.674;7.824;2022-09-09T05:33:20;9.75;;;2.10;;
48871;SDS011;36154;51.674;7.824;2022-09-09T05:35:46;11.15;;;1.65;;
48871;SDS011;36154;51.674;7.824;2022-09-09T05:38:11;5.90;;;1.65;;
48871;SDS011;36154;51.674;7.824;2022-09-09T05:40:36;5.22;;;1.20;;
48871;SDS011;36154;51.674;7.824;2022-09-09T05:43:01;3.60;;;1.45;;
48871;SDS011;36154;51.674;7.824;2022-09-09T05:45:27;3.88;;;1.50;;
48871;SDS011;36154;51.674;7.824;2022-09-09T05:47:52;4.90;;;1.40;;
48871;SDS011;36154;51.674;7.824;2022-09-09T05:50:18;3.88;;;1.38;;
48871;SDS011;36154;51.674;7.824;2022-09-09T05:52:43;2.78;;;1.08;;
48871;SDS011;36154;51.674;7.824;2022-09-09T05:55:09;3.05;;;0.80;;
48871;SDS011;36154;51.674;7.824;2022-09-09T05:57:34;4.20;;;0.90;;
48871;SDS011;36154;51.674;7.824;2022-09-09T06:00:00;1.77;;;0.80;;
48871;SDS011;36154;51.674;7.824;2022-09-09T06:02:25;3.50;;;0.63;;
48871;SDS011;36154;51.674;7.824;2022-09-09T06:04:50;1.10;;;0.60;;
48871;SDS011;36154;51.674;7.824;2022-09-09T06:07:16;3.53;;;0.75;;
48871;SDS011;36154;51.674;7.824;2022-09-09T06:09:42;1.10;;;0.70;;
48871;SDS011;36154;51.674;7.824;2022-09-09T06:12:07;1.30;;;0.60;;
48871;SDS011;36154;51.674;7.824;2022-09-09T06:14:33;1.83;;;0.60;;
48871;SDS011;36154;51.674;7.824;2022-09-09T06:16:59;1.77;;;0.70;;
48871;SDS011;36154;51.674;7.824;2022-09-09T06:19:24;0.40;;;0.40;;
48871;SDS011;36154;51.674;7.824;2022-09-09T06:21:51;0.85;;;0.30;;
48871;SDS011;36154;51.674;7.824;2022-09-09T06:24:16;0.60;;;0.35;;
48871;SDS011;36154;51.674;7.824;2022-09-09T06:26:44;0.85;;;0.43;;
48871;SDS011;36154;51.674;7.824;2022-09-09T06:29:10;1.00;;;0.38;;
48871;SDS011;36154;51.674;7.824;2022-09-09T06:31:36;0.75;;;0.30;;
48871;SDS011;36154;51.674;7.824;2022-09-09T06:34:03;0.38;;;0.30;;
48871;SDS011;36154;51.674;7.824;2022-09-09T06:36:33;0.40;;;0.30;;
48871;SDS011;36154;51.674;7.824;2022-09-09T06:39:01;0.63;;;0.30;;
48871;SDS011;36154;51.674;7.824;2022-09-09T06:41:28;0.20;;;0.20;;
48871;SDS011;36154;51.674;7.824;2022-09-09T06:43:55;0.55;;;0.30;;
48871;SDS011;36154;51.674;7.824;2022-09-09T06:46:22;0.93;;;0.30;;
48871;SDS011;36154;51.674;7.824;2022-09-09T06:48:55;0.85;;;0.32;;
48871;SDS011;36154;51.674;7.824;2022-09-09T06:51:22;0.30;;;0.20;;
48871;SDS011;36154;51.674;7.824;2022-09-09T06:53:51;0.52;;;0.20;;
48871;SDS011;36154;51.674;7.824;2022-09-09T06:56:18;0.20;;;0.20;;
48871;SDS011;36154;51.674;7.824;2022-09-09T06:58:47;0.90;;;0.30;;
48871;SDS011;36154;51.674;7.824;2022-09-09T07:01:17;0.45;;;0.22;;
48871;SDS011;36154;51.674;7.824;2022-09-09T07:03:51;0.95;;;0.30;;
48871;SDS011;36154;51.674;7.824;2022-09-09T07:06:20;0.50;;;0.20;;
48871;SDS011;36154;51.674;7.824;2022-09-09T07:08:52;0.45;;;0.25;;
48871;SDS011;36154;51.674;7.824;2022-09-09T07:11:20;0.70;;;0.20;;
48871;SDS011;36154;51.674;7.824;2022-09-09T07:13:47;1.15;;;0.40;;
48871;SDS011;36154;51.674;7.824;2022-09-09T07:16:14;0.38;;;0.20;;
48871;SDS011;36154;51.674;7.824;2022-09-09T07:18:43;0.75;;;0.25;;
48871;SDS011;36154;51.674;7.824;2022-09-09T07:21:10;0.93;;;0.40;;
48871;SDS011;36154;51.674;7.824;2022-09-09T07:23:39;0.70;;;0.30;;
48871;SDS011;36154;51.674;7.824;2022-09-09T07:26:09;1.00;;;0.20;;
48871;SDS011;36154;51.674;7.824;2022-09-09T07:28:34;0.30;;;0.20;;
48871;SDS011;36154;51.674;7.824;2022-09-09T07:31:00;1.08;;;0.20;;
48871;SDS011;36154;51.674;7.824;2022-09-09T07:33:28;1.05;;;0.20;;
48871;SDS011;36154;51.674;7.824;2022-09-09T07:36:04;0.40;;;0.20;;
48871;SDS011;36154;51.674;7.824;2022-09-09T07:38:32;0.45;;;0.20;;
48871;SDS011;36154;51.674;7.824;2022-09-09T07:41:05;0.65;;;0.22;;
48871;SDS011;36154;51.674;7.824;2022-09-09T07:43:34;0.47;;;0.20;;
48871;SDS011;36154;51.674;7.824;2022-09-09T07:45:59;0.63;;;0.20;;
48871;SDS011;36154;51.674;7.824;2022-09-09T07:48:28;0.52;;;0.20;;
48871;SDS011;36154;51.674;7.824;2022-09-09T07:51:02;0.30;;;0.20;;
48871;SDS011;36154;51.674;7.824;2022-09-09T07:53:32;0.45;;;0.20;;
48871;SDS011;36154;51.674;7.824;2022-09-09T07:56:03;1.25;;;0.40;;
48871;SDS011;36154;51.674;7.824;2022-09-09T07:58:30;0.40;;;0.20;;
48871;SDS011;36154;51.674;7.824;2022-09-09T08:00:56;1.52;;;0.17;;
48871;SDS011;36154;51.674;7.824;2022-09-09T08:03:22;1.17;;;0.28;;
48871;SDS011;36154;51.674;7.824;2022-09-09T08:05:48;0.40;;;0.20;;
48871;SDS011;36154;51.674;7.824;2022-09-09T08:08:14;0.50;;;0.22;;
48871;SDS011;36154;51.674;7.824;2022-09-09T08:10:39;0.38;;;0.15;;
48871;SDS011;36154;51.674;7.824;2022-09-09T08:13:04;0.90;;;0.22;;
48871;SDS011;36154;51.674;7.824;2022-09-09T08:15:30;0.38;;;0.20;;
48871;SDS011;36154;51.674;7.824;2022-09-09T08:17:57;0.93;;;0.20;;
48871;SDS011;36154;51.674;7.824;2022-09-09T08:20:22;0.50;;;0.22;;
48871;SDS011;36154;51.674;7.824;2022-09-09T08:22:48;0.30;;;0.10;;
48871;SDS011;36154;51.674;7.824;2022-09-09T08:25:14;0.55;;;0.17;;
48871;SDS011;36154;51.674;7.824;2022-09-09T08:27:40;0.43;;;0.10;;
48871;SDS011;36154;51.674;7.824;2022-09-09T08:30:05;0.20;;;0.20;;
48871;SDS011;36154;51.674;7.824;2022-09-09T08:32:31;0.68;;;0.30;;
48871;SDS011;36154;51.674;7.824;2022-09-09T08:34:57;2.47;;;0.40;;
48871;SDS011;36154;51.674;7.824;2022-09-09T08:37:22;1.05;;;0.20;;
48871;SDS011;36154;51.674;7.824;2022-09-09T08:39:47;0.68;;;0.30;;
48871;SDS011;36154;51.674;7.824;2022-09-09T08:42:31;0.38;;;0.17;;
48871;SDS011;36154;51.674;7.824;2022-09-09T08:45:12;1.48;;;0.20;;
48871;SDS011;36154;51.674;7.824;2022-09-09T08:50:33;0.40;;;0.20;;
48871;SDS011;36154;51.674;7.824;2022-09-09T08:58:19;1.33;;;0.30;;
48871;SDS011;36154;51.674;7.824;2022-09-09T09:03:53;0.43;;;0.20;;
48871;SDS011;36154;51.674;7.824;2022-09-09T09:09:22;1.38;;;0.30;;
48871;SDS011;36154;51.674;7.824;2022-09-09T09:12:21;0.40;;;0.20;;
48871;SDS011;36154;51.674;7.824;2022-09-09T09:14:48;0.40;;;0.30;;
48871;SDS011;36154;51.674;7.824;2022-09-09T09:17:18;0.60;;;0.20;;
48871;SDS011;36154;51.674;7.824;2022-09-09T09:19:46;1.30;;;0.40;;
48871;SDS011;36154;51.674;7.824;2022-09-09T09:22:22;1.27;;;0.30;;
48871;SDS011;36154;51.674;7.824;2022-09-09T09:25:00;1.02;;;0.55;;
48871;SDS011;36154;51.674;7.824;2022-09-09T09:30:35;1.05;;;0.43;;
48871;SDS011;36154;51.674;7.824;2022-09-09T09:33:10;0.93;;;0.40;;
48871;SDS011;36154;51.674;7.824;2022-09-09T09:36:11;1.38;;;0.25;;
48871;SDS011;36154;51.674;7.824;2022-09-09T09:38:40;0.50;;;0.20;;
48871;SDS011;36154;51.674;7.824;2022-09-09T09:44:00;0.65;;;0.30;;
48871;SDS011;36154;51.674;7.824;2022-09-09T09:46:27;0.28;;;0.10;;
48871;SDS011;36154;51.674;7.824;2022-09-09T09:48:56;0.73;;;0.20;;
48871;SDS011;36154;51.674;7.824;2022-09-09T09:51:22;0.30;;;0.13;;
48871;SDS011;36154;51.674;7.824;2022-09-09T09:53:49;1.10;;;0.30;;
48871;SDS011;36154;51.674;7.824;2022-09-09T09:56:14;1.33;;;0.40;;
48871;SDS011;36154;51.674;7.824;2022-09-09T10:03:53;1.10;;;0.60;;
48871;SDS011;36154;51.674;7.824;2022-09-09T10:06:37;2.78;;;0.60;;
48871;SDS011;36154;51.674;7.824;2022-09-09T10:09:03;0.98;;;0.32;;
48871;SDS011;36154;51.674;7.824;2022-09-09T10:12:29;1.75;;;0.50;;
48871;SDS011;36154;51.674;7.824;2022-09-09T10:15:07;1.88;;;0.40;;
48871;SDS011;36154;51.674;7.824;2022-09-09T10:36:56;1.42;;;0.50;;
48871;SDS011;36154;51.674;7.824;2022-09-09T10:47:18;1.55;;;0.40;;
48871;SDS011;36154;51.674;7.824;2022-09-09T10:55:24;0.77;;;0.50;;
48871;SDS011;36154;51.674;7.824;2022-09-09T10:57:58;0.95;;;0.43;;
48871;SDS011;36154;51.674;7.824;2022-09-09T11:00:27;1.27;;;0.50;;
48871;SDS011;36154;51.674;7.824;2022-09-09T11:03:03;0.88;;;0.40;;
48871;SDS011;36154;51.674;7.824;2022-09-09T11:08:17;1.55;;;0.40;;
48871;SDS011;36154;51.674;7.824;2022-09-09T11:10:46;0.60;;;0.40;;
48871;SDS011;36154;51.674;7.824;2022-09-09T11:13:25;1.08;;;0.45;;
48871;SDS011;36154;51.674;7.824;2022-09-09T11:19:17;2.60;;;0.60;;
48871;SDS011;36154;51.674;7.824;2022-09-09T11:21:49;0.90;;;0.52;;
48871;SDS011;36154;51.674;7.824;2022-09-09T11:35:44;2.20;;;0.60;;
48871;SDS011;36154;51.674;7.824;2022-09-09T11:41:05;0.77;;;0.30;;
48871;SDS011;36154;51.674;7.824;2022-09-09T11:43:52;3.72;;;0.50;;
48871;SDS011;36154;51.674;7.824;2022-09-09T11:46:31;1.80;;;0.50;;
48871;SDS011;36154;51.674;7.824;2022-09-09T11:49:02;1.85;;;0.40;;
48871;SDS011;36154;51.674;7.824;2022-09-09T11:51:30;0.85;;;0.40;;
48871;SDS011;36154;51.674;7.824;2022-09-09T11:59:19;1.33;;;0.40;;
48871;SDS011;36154;51.674;7.824;2022-09-09T12:06:58;0.82;;;0.30;;
48871;SDS011;36154;51.674;7.824;2022-09-09T12:09:27;1.25;;;0.47;;
48871;SDS011;36154;51.674;7.824;2022-09-09T12:12:05;0.52;;;0.40;;
48871;SDS011;36154;51.674;7.824;2022-09-09T12:17:30;0.85;;;0.30;;
48871;SDS011;36154;51.674;7.824;2022-09-09T12:20:13;0.88;;;0.40;;
48871;SDS011;36154;51.674;7.824;2022-09-09T12:25:48;0.77;;;0.40;;
48871;SDS011;36154;51.674;7.824;2022-09-09T12:34:20;0.73;;;0.40;;
48871;SDS011;36154;51.674;7.824;2022-09-09T12:36:54;0.95;;;0.25;;
48871;SDS011;36154;51.674;7.824;2022-09-09T12:39:29;0.88;;;0.20;;
48871;SDS011;36154;51.674;7.824;2022-09-09T12:42:03;4.03;;;0.40;;
48871;SDS011;36154;51.674;7.824;2022-09-09T12:44:29;5.03;;;0.43;;
48871;SDS011;36154;51.674;7.824;2022-09-09T12:46:55;0.45;;;0.30;;
48871;SDS011;36154;51.674;7.824;2022-09-09T12:52:07;1.25;;;0.35;;
48871;SDS011;36154;51.674;7.824;2022-09-09T12:54:43;1.95;;;0.40;;
48871;SDS011;36154;51.674;7.824;2022-09-09T12:57:15;1.45;;;0.30;;
48871;SDS011;36154;51.674;7.824;2022-09-09T12:59:41;0.80;;;0.40;;
48871;SDS011;36154;51.674;7.824;2022-09-09T13:02:24;3.28;;;0.38;;
48871;SDS011;36154;51.674;7.824;2022-09-09T13:04:50;2.72;;;0.43;;
48871;SDS011;36154;51.674;7.824;2022-09-09T13:07:17;0.93;;;0.30;;
48871;SDS011;36154;51.674;7.824;2022-09-09T13:09:44;1.38;;;0.40;;
48871;SDS011;36154;51.674;7.824;2022-09-09T13:12:13;0.65;;;0.20;;
48871;SDS011;36154;51.674;7.824;2022-09-09T13:14:44;1.55;;;0.40;;
48871;SDS011;36154;51.674;7.824;2022-09-09T13:17:20;0.70;;;0.40;;
48871;SDS011;36154;51.674;7.824;2022-09-09T13:19:47;0.75;;;0.30;;
48871;SDS011;36154;51.674;7.824;2022-09-09T13:22:27;1.15;;;0.47;;
48871;SDS011;36154;51.674;7.824;2022-09-09T13:27:36;1.08;;;0.35;;
48871;SDS011;36154;51.674;7.824;2022-09-09T13:32:47;1.80;;;0.50;;
48871;SDS011;36154;51.674;7.824;2022-09-09T13:35:26;1.85;;;0.32;;
48871;SDS011;36154;51.674;7.824;2022-09-09T13:37:51;0.95;;;0.25;;
48871;SDS011;36154;51.674;7.824;2022-09-09T13:40:17;4.65;;;0.35;;
48871;SDS011;36154;51.674;7.824;2022-09-09T13:42:44;3.35;;;0.32;;
48871;SDS011;36154;51.674;7.824;2022-09-09T13:45:20;0.50;;;0.30;;
48871;SDS011;36154;51.674;7.824;2022-09-09T13:47:48;0.55;;;0.30;;
48871;SDS011;36154;51.674;7.824;2022-09-09T13:50:30;1.65;;;0.30;;
48871;SDS011;36154;51.674;7.824;2022-09-09T13:52:56;0.50;;;0.38;;
48871;SDS011;36154;51.674;7.824;2022-09-09T13:55:23;1.10;;;0.35;;
48871;SDS011;36154;51.674;7.824;2022-09-09T13:57:52;0.80;;;0.30;;
48871;SDS011;36154;51.674;7.824;2022-09-09T14:00:19;2.05;;;0.30;;
48871;SDS011;36154;51.674;7.824;2022-09-09T14:02:46;2.33;;;0.30;;
48871;SDS011;36154;51.674;7.824;2022-09-09T14:05:12;0.73;;;0.28;;
48871;SDS011;36154;51.674;7.824;2022-09-09T14:07:37;1.15;;;0.40;;
48871;SDS011;36154;51.674;7.824;2022-09-09T14:10:05;0.73;;;0.30;;
48871;SDS011;36154;51.674;7.824;2022-09-09T14:12:31;1.20;;;0.40;;
48871;SDS011;36154;51.674;7.824;2022-09-09T14:14:56;0.60;;;0.30;;
48871;SDS011;36154;51.674;7.824;2022-09-09T14:17:22;1.17;;;0.40;;
48871;SDS011;36154;51.674;7.824;2022-09-09T14:19:47;1.27;;;0.40;;
48871;SDS011;36154;51.674;7.824;2022-09-09T14:22:13;1.00;;;0.40;;
48871;SDS011;36154;51.674;7.824;2022-09-09T14:24:39;0.75;;;0.40;;
48871;SDS011;36154;51.674;7.824;2022-09-09T14:27:05;0.88;;;0.40;;
48871;SDS011;36154;51.674;7.824;2022-09-09T14:29:31;2.17;;;0.35;;
48871;SDS011;36154;51.674;7.824;2022-09-09T14:31:58;2.20;;;0.40;;
48871;SDS011;36154;51.674;7.824;2022-09-09T14:34:25;0.75;;;0.40;;
48871;SDS011;36154;51.674;7.824;2022-09-09T14:36:50;0.75;;;0.40;;
48871;SDS011;36154;51.674;7.824;2022-09-09T14:39:16;1.83;;;0.40;;
48871;SDS011;36154;51.674;7.824;2022-09-09T14:41:41;0.45;;;0.30;;
48871;SDS011;36154;51.674;7.824;2022-09-09T14:44:07;2.83;;;0.30;;
48871;SDS011;36154;51.674;7.824;2022-09-09T14:46:33;0.45;;;0.35;;
48871;SDS011;36154;51.674;7.824;2022-09-09T14:48:59;1.20;;;0.32;;
48871;SDS011;36154;51.674;7.824;2022-09-09T14:51:24;0.98;;;0.30;;
48871;SDS011;36154;51.674;7.824;2022-09-09T14:53:52;2.22;;;0.30;;
48871;SDS011;36154;51.674;7.824;2022-09-09T14:56:19;0.65;;;0.32;;
48871;SDS011;36154;51.674;7.824;2022-09-09T14:58:47;1.95;;;0.60;;
48871;SDS011;36154;51.674;7.824;2022-09-09T15:01:14;1.08;;;0.40;;
48871;SDS011;36154;51.674;7.824;2022-09-09T15:03:42;1.98;;;0.40;;
48871;SDS011;36154;51.674;7.824;2022-09-09T15:06:13;0.43;;;0.22;;
48871;SDS011;36154;51.674;7.824;2022-09-09T15:08:41;1.75;;;0.40;;
48871;SDS011;36154;51.674;7.824;2022-09-09T15:11:08;1.67;;;0.50;;
48871;SDS011;36154;51.674;7.824;2022-09-09T15:13:35;1.73;;;0.50;;
48871;SDS011;36154;51.674;7.824;2022-09-09T15:16:12;1.00;;;0.50;;
48871;SDS011;36154;51.674;7.824;2022-09-09T15:18:39;1.42;;;0.30;;
48871;SDS011;36154;51.674;7.824;2022-09-09T15:21:07;3.50;;;0.40;;
48871;SDS011;36154;51.674;7.824;2022-09-09T15:23:36;1.45;;;0.40;;
48871;SDS011;36154;51.674;7.824;2022-09-09T15:26:02;9.73;;;0.90;;
48871;SDS011;36154;51.674;7.824;2022-09-09T15:28:29;5.07;;;1.17;;
48871;SDS011;36154;51.674;7.824;2022-09-09T15:30:57;27.30;;;3.78;;
48871;SDS011;36154;51.674;7.824;2022-09-09T15:33:24;23.20;;;4.07;;
48871;SDS011;36154;51.674;7.824;2022-09-09T15:35:50;14.48;;;3.33;;
48871;SDS011;36154;51.674;7.824;2022-09-09T15:38:16;7.78;;;2.00;;
48871;SDS011;36154;51.674;7.824;2022-09-09T15:40:42;12.25;;;2.22;;
48871;SDS011;36154;51.674;7.824;2022-09-09T15:43:08;11.23;;;1.73;;
48871;SDS011;36154;51.674;7.824;2022-09-09T15:45:35;6.75;;;1.60;;
48871;SDS011;36154;51.674;7.824;2022-09-09T15:48:01;8.70;;;1.70;;
48871;SDS011;36154;51.674;7.824;2022-09-09T15:50:27;9.50;;;1.80;;
48871;SDS011;36154;51.674;7.824;2022-09-09T15:52:57;11.90;;;1.52;;
48871;SDS011;36154;51.674;7.824;2022-09-09T15:55:23;4.15;;;2.30;;
48871;SDS011;36154;51.674;7.824;2022-09-09T15:57:52;6.18;;;1.85;;
48871;SDS011;36154;51.674;7.824;2022-09-09T16:00:18;6.55;;;1.40;;
48871;SDS011;36154;51.674;7.824;2022-09-09T16:02:44;5.25;;;1.27;;
48871;SDS011;36154;51.674;7.824;2022-09-09T16:05:11;6.63;;;1.20;;
48871;SDS011;36154;51.674;7.824;2022-09-09T16:07:37;5.68;;;1.38;;
48871;SDS011;36154;51.674;7.824;2022-09-09T16:10:02;6.28;;;1.40;;
48871;SDS011;36154;51.674;7.824;2022-09-09T16:12:28;3.38;;;1.00;;
48871;SDS011;36154;51.674;7.824;2022-09-09T16:14:53;3.17;;;0.93;;
48871;SDS011;36154;51.674;7.824;2022-09-09T16:17:19;2.95;;;1.13;;
48871;SDS011;36154;51.674;7.824;2022-09-09T16:19:45;2.50;;;0.90;;
48871;SDS011;36154;51.674;7.824;2022-09-09T16:22:10;2.95;;;1.10;;
48871;SDS011;36154;51.674;7.824;2022-09-09T16:24:36;4.03;;;1.10;;
48871;SDS011;36154;51.674;7.824;2022-09-09T16:27:01;9.00;;;1.08;;
48871;SDS011;36154;51.674;7.824;2022-09-09T16:29:26;3.58;;;0.88;;
48871;SDS011;36154;51.674;7.824;2022-09-09T16:31:52;3.95;;;0.88;;
48871;SDS011;36154;51.674;7.824;2022-09-09T16:34:18;4.05;;;0.88;;
48871;SDS011;36154;51.674;7.824;2022-09-09T16:36:44;1.90;;;1.05;;
48871;SDS011;36154;51.674;7.824;2022-09-09T16:39:12;5.78;;;0.70;;
48871;SDS011;36154;51.674;7.824;2022-09-09T16:41:40;5.90;;;0.70;;
48871;SDS011;36154;51.674;7.824;2022-09-09T16:44:07;3.92;;;0.68;;
48871;SDS011;36154;51.674;7.824;2022-09-09T16:46:34;4.20;;;0.60;;
48871;SDS011;36154;51.674;7.824;2022-09-09T16:49:02;2.40;;;0.60;;
48871;SDS011;36154;51.674;7.824;2022-09-09T16:51:48;2.95;;;0.73;;
48871;SDS011;36154;51.674;7.824;2022-09-09T16:54:15;3.20;;;0.50;;
48871;SDS011;36154;51.674;7.824;2022-09-09T16:56:43;3.15;;;0.52;;
48871;SDS011;36154;51.674;7.824;2022-09-09T16:59:11;3.45;;;0.30;;
48871;SDS011;36154;51.674;7.824;2022-09-09T17:01:41;1.70;;;0.50;;
48871;SDS011;36154;51.674;7.824;2022-09-09T17:04:12;7.13;;;0.60;;
48871;SDS011;36154;51.674;7.824;2022-09-09T17:06:45;3.95;;;0.50;;
48871;SDS011;36154;51.674;7.824;2022-09-09T17:09:14;2.15;;;0.52;;
48871;SDS011;36154;51.674;7.824;2022-09-09T17:11:39;2.72;;;0.68;;
48871;SDS011;36154;51.674;7.824;2022-09-09T17:14:06;2.22;;;0.40;;
48871;SDS011;36154;51.674;7.824;2022-09-09T17:16:34;1.20;;;0.43;;
48871;SDS011;36154;51.674;7.824;2022-09-09T17:19:00;1.95;;;0.50;;
48871;SDS011;36154;51.674;7.824;2022-09-09T17:21:26;3.13;;;0.40;;
48871;SDS011;36154;51.674;7.824;2022-09-09T17:23:53;2.17;;;0.30;;
48871;SDS011;36154;51.674;7.824;2022-09-09T17:26:20;0.95;;;0.40;;
48871;SDS011;36154;51.674;7.824;2022-09-09T17:28:46;0.90;;;0.40;;
48871;SDS011;36154;51.674;7.824;2022-09-09T17:31:14;1.23;;;0.40;;
48871;SDS011;36154;51.674;7.824;2022-09-09T17:33:42;0.55;;;0.32;;